createdAt,value
2023-03-05T00:00:15.041Z,3.60
2023-03-05T00:03:14.548Z,4.10
2023-03-05T00:05:43.755Z,3.80
2023-03-05T00:08:11.710Z,3.60
2023-03-05T00:10:38.970Z,3.83
2023-03-05T00:13:08.778Z,3.40
2023-03-05T00:15:41.499Z,4.20
2023-03-05T00:18:09.397Z,4.07
2023-03-05T00:20:36.678Z,4.20
2023-03-05T00:23:04.230Z,4.17
2023-03-05T00:25:31.463Z,4.90
2023-03-05T00:27:58.833Z,4.87
2023-03-05T00:30:26.020Z,5.27
2023-03-05T00:32:53.322Z,5.53
2023-03-05T00:35:20.706Z,6.47
2023-03-05T00:37:56.634Z,6.37
2023-03-05T00:40:24.987Z,7.00
2023-03-05T00:42:52.467Z,7.07
2023-03-05T00:45:20.583Z,6.63
2023-03-05T00:47:49.777Z,7.17
2023-03-05T00:50:17.061Z,7.03
2023-03-05T00:52:44.641Z,7.73
2023-03-05T00:55:12.036Z,7.70
2023-03-05T00:57:39.408Z,7.03
2023-03-05T01:00:08.095Z,6.70
2023-03-05T01:02:35.655Z,6.90
2023-03-05T01:05:03.081Z,7.00
2023-03-05T01:07:34.388Z,6.47
2023-03-05T01:10:02.932Z,6.30
2023-03-05T01:12:34.259Z,6.67
2023-03-05T01:15:02.757Z,6.33
2023-03-05T01:17:31.056Z,6.50
2023-03-05T01:20:35.250Z,6.27
2023-03-05T01:23:08.040Z,6.30
2023-03-05T01:25:36.778Z,6.87
2023-03-05T01:28:05.239Z,6.20
2023-03-05T01:30:35.255Z,6.30
2023-03-05T01:33:02.784Z,6.90
2023-03-05T01:35:30.505Z,7.00
2023-03-05T01:37:57.920Z,6.60
2023-03-05T01:40:26.308Z,6.70
2023-03-05T01:43:17.250Z,7.87
2023-03-05T01:46:03.381Z,7.77
2023-03-05T01:48:30.919Z,7.10
2023-03-05T01:50:58.417Z,8.03
2023-03-05T01:53:25.893Z,8.00
2023-03-05T01:55:55.992Z,7.63
2023-03-05T01:58:24.488Z,7.83
2023-03-05T02:00:53.432Z,8.07
2023-03-05T02:03:22.376Z,7.83
2023-03-05T02:05:50.626Z,7.77
2023-03-05T02:08:19.908Z,7.87
2023-03-05T02:10:52.958Z,7.57
2023-03-05T02:13:33.959Z,8.03
2023-03-05T02:16:03.649Z,7.07
2023-03-05T02:18:35.412Z,7.10
2023-03-05T02:21:08.136Z,7.73
2023-03-05T02:23:37.668Z,7.63
2023-03-05T02:26:10.100Z,7.87
2023-03-05T02:28:46.406Z,7.40
2023-03-05T02:31:17.037Z,7.63
2023-03-05T02:33:44.817Z,7.10
2023-03-05T02:36:12.805Z,6.80
2023-03-05T02:38:40.757Z,7.10
2023-03-05T02:41:10.864Z,7.47
2023-03-05T02:43:39.440Z,7.03
2023-03-05T02:46:09.619Z,7.33
2023-03-05T02:48:37.366Z,6.97
2023-03-05T02:51:07.736Z,7.83
2023-03-05T02:53:39.480Z,6.57
2023-03-05T02:56:07.348Z,6.97
2023-03-05T02:58:38.909Z,6.97
2023-03-05T03:01:06.219Z,7.37
2023-03-05T03:03:33.563Z,7.23
2023-03-05T03:06:00.856Z,6.90
2023-03-05T03:08:28.411Z,6.63
2023-03-05T03:10:57.343Z,6.77
2023-03-05T03:13:25.471Z,6.50
2023-03-05T03:16:01.925Z,7.30
2023-03-05T03:19:19.598Z,6.70
2023-03-05T03:21:47.150Z,6.27
2023-03-05T03:24:18.675Z,7.00
2023-03-05T03:26:53.643Z,7.27
2023-03-05T03:29:48.324Z,6.33
2023-03-05T03:32:19.369Z,6.30
2023-03-05T03:34:48.155Z,6.47
2023-03-05T03:37:15.797Z,7.03
2023-03-05T03:39:45.878Z,6.27
2023-03-05T03:42:14.146Z,7.10
2023-03-05T03:44:42.320Z,6.63
2023-03-05T03:47:09.608Z,6.77
2023-03-05T03:49:37.105Z,6.97
2023-03-05T03:52:04.494Z,6.03
2023-03-05T03:54:39.119Z,6.93
2023-03-05T03:57:10.142Z,7.03
2023-03-05T03:59:37.770Z,6.50
2023-03-05T04:02:05.466Z,6.93
2023-03-05T04:04:32.817Z,6.70
2023-03-05T04:07:00.120Z,6.07
2023-03-05T04:09:27.504Z,6.30
2023-03-05T04:11:57.032Z,7.20
2023-03-05T04:14:27.354Z,6.70
2023-03-05T04:17:08.286Z,7.37
2023-03-05T04:19:45.483Z,6.70
2023-03-05T04:22:20.465Z,6.33
2023-03-05T04:24:49.236Z,6.30
2023-03-05T04:27:17.800Z,6.43
2023-03-05T04:29:45.141Z,6.83
2023-03-05T04:32:12.682Z,6.10
2023-03-05T04:34:40.181Z,6.30
2023-03-05T04:37:07.442Z,6.40
2023-03-05T04:39:34.738Z,5.97
2023-03-05T04:42:03.178Z,5.60
2023-03-05T04:44:30.526Z,5.80
2023-03-05T04:46:58.891Z,6.17
2023-03-05T04:49:26.179Z,6.30
2023-03-05T04:51:53.774Z,5.87
2023-03-05T04:54:25.011Z,5.63
2023-03-05T04:56:53.007Z,5.57
2023-03-05T04:59:20.337Z,6.10
2023-03-05T05:01:47.649Z,5.67
2023-03-05T05:04:16.437Z,6.07
2023-03-05T05:06:44.135Z,5.53
2023-03-05T05:09:12.004Z,5.23
2023-03-05T05:11:40.464Z,5.30
2023-03-05T05:14:08.780Z,5.33
2023-03-05T05:16:36.167Z,6.07
2023-03-05T05:19:05.065Z,5.97
2023-03-05T05:21:32.766Z,5.30
2023-03-05T05:24:02.391Z,5.60
2023-03-05T05:26:29.941Z,5.87
2023-03-05T05:29:00.407Z,6.03
2023-03-05T05:31:30.227Z,5.27
2023-03-05T05:34:08.935Z,5.57
2023-03-05T05:36:36.880Z,5.57
2023-03-05T05:39:06.199Z,5.10
2023-03-05T05:41:34.480Z,5.13
2023-03-05T05:44:01.810Z,5.27
2023-03-05T05:46:29.337Z,5.57
2023-03-05T05:48:57.745Z,5.23
2023-03-05T05:51:31.051Z,4.87
2023-03-05T05:53:58.403Z,5.13
2023-03-05T05:56:25.878Z,5.37
2023-03-05T05:58:54.197Z,5.00
2023-03-05T06:01:24.034Z,5.20
2023-03-05T06:03:59.059Z,4.83
2023-03-05T06:06:27.304Z,4.50
2023-03-05T06:08:55.043Z,4.53
2023-03-05T06:11:24.308Z,5.07
2023-03-05T06:13:52.485Z,4.67
2023-03-05T06:16:36.096Z,5.13
2023-03-05T06:19:11.140Z,4.53
2023-03-05T06:21:40.539Z,4.87
2023-03-05T06:24:08.343Z,4.83
2023-03-05T06:26:37.605Z,5.03
2023-03-05T06:29:04.957Z,5.70
2023-03-05T06:34:14.009Z,4.57
2023-03-05T06:36:43.673Z,4.80
2023-03-05T06:39:18.354Z,4.93
2023-03-05T06:41:47.833Z,5.83
2023-03-05T06:44:15.776Z,5.20
2023-03-05T06:46:52.392Z,5.10
2023-03-05T06:49:27.536Z,5.80
2023-03-05T06:51:55.063Z,5.60
2023-03-05T06:54:23.409Z,4.70
2023-03-05T06:56:50.666Z,5.50
2023-03-05T06:59:18.569Z,5.53
2023-03-05T07:01:46.294Z,5.30
2023-03-05T07:04:14.155Z,5.37
2023-03-05T07:06:45.347Z,4.73
2023-03-05T07:09:15.012Z,5.07
2023-03-05T07:11:42.742Z,4.63
2023-03-05T07:14:18.566Z,5.17
2023-03-05T07:16:48.243Z,4.80
2023-03-05T07:19:15.524Z,5.30
2023-03-05T07:21:44.567Z,5.80
2023-03-05T07:24:16.337Z,4.50
2023-03-05T07:26:44.111Z,5.00
2023-03-05T07:29:11.612Z,5.00
2023-03-05T07:31:38.867Z,5.80
2023-03-05T07:34:39.252Z,5.30
2023-03-05T07:37:08.404Z,4.63
2023-03-05T07:39:42.222Z,5.03
2023-03-05T07:42:09.898Z,5.10
2023-03-05T07:44:51.248Z,5.10
2023-03-05T07:47:20.752Z,5.30
2023-03-05T07:49:54.097Z,4.77
2023-03-05T07:52:23.657Z,5.10
2023-03-05T07:54:51.006Z,5.00
2023-03-05T07:57:18.341Z,5.10
2023-03-05T07:59:45.975Z,4.90
2023-03-05T08:02:14.141Z,5.23
2023-03-05T08:04:43.631Z,5.60
2023-03-05T08:07:10.958Z,5.50
2023-03-05T08:09:38.316Z,4.73
2023-03-05T08:12:05.849Z,5.47
2023-03-05T08:14:33.284Z,6.10
2023-03-05T08:17:00.538Z,5.60
2023-03-05T08:19:30.276Z,6.00
2023-03-05T08:21:57.606Z,6.10
2023-03-05T08:24:29.484Z,5.60
2023-03-05T08:26:58.756Z,5.40
2023-03-05T08:29:27.086Z,5.87
2023-03-05T08:31:54.561Z,5.60
2023-03-05T08:34:23.173Z,5.67
2023-03-05T08:36:51.888Z,6.00
2023-03-05T08:39:19.764Z,5.90
2023-03-05T08:41:54.459Z,6.43
2023-03-05T08:44:21.748Z,7.30
2023-03-05T08:46:50.328Z,6.93
2023-03-05T08:49:22.858Z,8.50
2023-03-05T08:51:51.153Z,7.07
2023-03-05T08:54:18.852Z,7.60
2023-03-05T08:56:46.222Z,6.10
2023-03-05T08:59:13.816Z,7.07
2023-03-05T09:01:41.293Z,7.70
2023-03-05T09:04:08.659Z,7.30
2023-03-05T09:06:39.337Z,7.80
2023-03-05T09:09:07.730Z,7.77
2023-03-05T09:11:36.216Z,8.47
2023-03-05T09:14:04.347Z,8.40
2023-03-05T09:16:32.030Z,8.27
2023-03-05T09:18:59.809Z,8.30
2023-03-05T09:21:27.281Z,8.07
2023-03-05T09:23:59.620Z,8.57
2023-03-05T09:26:27.054Z,8.77
2023-03-05T09:28:54.402Z,8.70
2023-03-05T09:31:21.727Z,8.90
2023-03-05T09:33:49.815Z,8.30
2023-03-05T09:36:22.076Z,8.97
2023-03-05T09:38:51.234Z,8.37
2023-03-05T09:41:38.197Z,8.67
2023-03-05T09:44:28.161Z,8.70
2023-03-05T09:46:57.935Z,9.17
2023-03-05T09:49:31.550Z,9.37
2023-03-05T09:52:06.219Z,9.23
2023-03-05T09:54:37.906Z,9.07
2023-03-05T09:57:06.197Z,9.43
2023-03-05T09:59:44.553Z,8.60
2023-03-05T10:02:21.174Z,10.30
2023-03-05T10:04:53.185Z,9.97
2023-03-05T10:07:37.454Z,9.60
2023-03-05T10:10:11.087Z,9.73
2023-03-05T10:12:43.069Z,9.97
2023-03-05T10:15:12.919Z,10.80
2023-03-05T10:17:40.154Z,10.50
2023-03-05T10:20:07.440Z,11.70
2023-03-05T10:22:43.014Z,11.17
2023-03-05T10:25:33.152Z,10.90
2023-03-05T10:28:18.080Z,10.57
2023-03-05T10:30:50.962Z,10.73
2023-03-05T10:33:37.838Z,10.60
2023-03-05T10:36:24.696Z,10.83
2023-03-05T10:39:13.591Z,11.03
2023-03-05T10:41:55.280Z,10.40
2023-03-05T10:44:34.140Z,11.20
2023-03-05T10:47:04.010Z,10.43
2023-03-05T10:49:33.477Z,10.47
2023-03-05T10:52:09.785Z,11.20
2023-03-05T10:54:41.775Z,10.50
2023-03-05T10:57:13.454Z,10.83
2023-03-05T10:59:59.168Z,10.03
2023-03-05T11:02:27.708Z,9.33
2023-03-05T11:04:55.037Z,9.90
2023-03-05T11:07:27.453Z,8.20
2023-03-05T11:10:04.078Z,8.50
2023-03-05T11:12:38.764Z,7.77
2023-03-05T11:15:09.771Z,6.87
2023-03-05T11:17:46.215Z,6.30
2023-03-05T11:20:35.342Z,6.80
2023-03-05T11:23:03.987Z,6.23
2023-03-05T11:25:37.219Z,6.73
2023-03-05T11:28:05.901Z,7.33
2023-03-05T11:30:36.401Z,7.30
2023-03-05T11:33:22.875Z,7.20
2023-03-05T11:35:52.974Z,7.53
2023-03-05T11:38:29.398Z,7.40
2023-03-05T11:41:08.591Z,7.47
2023-03-05T11:43:41.223Z,7.70
2023-03-05T11:46:13.854Z,7.80
2023-03-05T11:48:43.945Z,8.00
2023-03-05T11:51:18.086Z,8.10
2023-03-05T11:53:54.780Z,7.60
2023-03-05T11:56:29.175Z,8.60
2023-03-05T11:59:04.914Z,8.43
2023-03-05T12:01:34.078Z,8.50
2023-03-05T12:04:02.946Z,9.00
2023-03-05T12:06:37.601Z,9.10
2023-03-05T12:09:11.516Z,9.93
2023-03-05T12:11:40.941Z,10.80
2023-03-05T12:14:31.985Z,10.83
2023-03-05T12:17:05.463Z,10.20
2023-03-05T12:19:50.277Z,8.30
2023-03-05T12:22:20.652Z,7.90
2023-03-05T12:24:48.267Z,6.80
2023-03-05T12:27:35.671Z,6.13
2023-03-05T12:30:05.471Z,6.53
2023-03-05T12:32:32.794Z,6.23
2023-03-05T12:35:06.911Z,6.10
2023-03-05T12:37:37.842Z,6.83
2023-03-05T12:40:08.852Z,6.97
2023-03-05T12:42:43.057Z,7.70
2023-03-05T12:45:11.154Z,8.10
2023-03-05T12:47:42.242Z,7.20
2023-03-05T12:50:49.469Z,6.90
2023-03-05T12:53:18.582Z,6.03
2023-03-05T12:56:15.180Z,6.80
2023-03-05T12:59:10.794Z,7.00
2023-03-05T13:01:57.938Z,7.50
2023-03-05T13:04:29.343Z,7.17
2023-03-05T13:07:01.177Z,7.10
2023-03-05T13:09:31.585Z,7.07
2023-03-05T13:12:04.089Z,6.60
2023-03-05T13:14:49.400Z,5.93
2023-03-05T13:17:45.024Z,6.57
2023-03-05T13:20:30.706Z,6.13
2023-03-05T13:23:18.349Z,7.03
2023-03-05T13:25:46.575Z,6.13
2023-03-05T13:28:15.409Z,6.57
2023-03-05T13:30:46.004Z,6.70
2023-03-05T13:33:17.280Z,6.60
2023-03-05T13:35:54.200Z,4.63
2023-03-05T13:38:31.586Z,4.77
2023-03-05T13:41:05.969Z,4.90
2023-03-05T13:43:37.298Z,4.70
2023-03-05T13:46:05.956Z,4.30
2023-03-05T13:48:33.828Z,4.13
2023-03-05T13:51:07.382Z,4.40
2023-03-05T13:53:34.953Z,4.33
2023-03-05T13:56:03.596Z,4.50
2023-03-05T13:58:50.795Z,4.67
2023-03-05T14:01:18.265Z,4.37
2023-03-05T14:03:53.133Z,4.47
2023-03-05T14:06:24.130Z,4.27
2023-03-05T14:09:11.612Z,4.70
2023-03-05T14:11:41.487Z,5.33
2023-03-05T14:14:17.714Z,5.67
2023-03-05T14:16:55.843Z,5.07
2023-03-05T14:19:35.302Z,5.03
2023-03-05T14:22:05.040Z,5.23
2023-03-05T14:24:34.025Z,5.87
2023-03-05T14:27:05.702Z,8.63
2023-03-05T14:29:33.626Z,6.03
2023-03-05T14:32:06.877Z,6.00
2023-03-05T14:34:34.215Z,5.53
2023-03-05T14:37:07.556Z,5.93
2023-03-05T14:39:51.568Z,5.50
2023-03-05T14:42:27.758Z,6.33
2023-03-05T14:44:55.907Z,6.50
2023-03-05T14:47:26.828Z,6.83
2023-03-05T14:49:54.472Z,6.80
2023-03-05T14:52:24.418Z,7.60
2023-03-05T14:54:52.231Z,7.17
2023-03-05T14:57:22.216Z,7.50
2023-03-05T14:59:49.996Z,8.23
2023-03-05T15:02:21.851Z,7.73
2023-03-05T15:04:49.686Z,8.00
2023-03-05T15:07:34.919Z,7.50
2023-03-05T15:10:02.251Z,8.03
2023-03-05T15:12:30.209Z,7.70
2023-03-05T15:14:58.076Z,7.20
2023-03-05T15:17:36.131Z,6.80
2023-03-05T15:20:08.042Z,7.10
2023-03-05T15:22:35.374Z,7.40
2023-03-05T15:25:03.686Z,7.27
2023-03-05T15:27:31.008Z,7.63
2023-03-05T15:29:59.729Z,7.50
2023-03-05T15:32:29.026Z,7.33
2023-03-05T15:34:56.543Z,7.57
2023-03-05T15:37:24.848Z,7.77
2023-03-05T15:39:52.406Z,7.90
2023-03-05T15:42:20.025Z,7.70
2023-03-05T15:44:47.909Z,8.20
2023-03-05T15:47:18.050Z,7.57
2023-03-05T15:49:45.756Z,8.10
2023-03-05T15:52:14.556Z,8.07
2023-03-05T15:54:41.937Z,7.67
2023-03-05T15:57:10.713Z,8.17
2023-03-05T15:59:38.312Z,8.07
2023-03-05T16:02:06.006Z,7.80
2023-03-05T16:04:34.625Z,7.93
2023-03-05T16:07:05.366Z,7.77
2023-03-05T16:09:41.486Z,8.03
2023-03-05T16:12:16.609Z,8.33
2023-03-05T16:14:44.837Z,8.90
2023-03-05T16:17:12.341Z,8.63
2023-03-05T16:19:45.254Z,8.47
2023-03-05T16:22:13.053Z,8.97
2023-03-05T16:24:42.188Z,8.43
2023-03-05T16:27:17.521Z,8.90
2023-03-05T16:29:47.040Z,9.70
2023-03-05T16:32:16.480Z,9.57
2023-03-05T16:34:45.298Z,9.00
2023-03-05T16:37:19.924Z,9.63
2023-03-05T16:39:48.211Z,9.87
2023-03-05T16:42:20.327Z,9.87
2023-03-05T16:44:48.896Z,10.17
2023-03-05T16:47:19.310Z,10.30
2023-03-05T16:49:47.110Z,9.97
2023-03-05T16:52:19.085Z,11.10
2023-03-05T16:54:48.667Z,10.80
2023-03-05T16:57:17.242Z,10.33
2023-03-05T16:59:47.073Z,11.10
2023-03-05T17:02:15.467Z,10.23
2023-03-05T17:04:44.134Z,11.20
2023-03-05T17:07:12.750Z,10.83
2023-03-05T17:09:44.149Z,11.27
2023-03-05T17:12:11.983Z,11.27
2023-03-05T17:14:43.887Z,11.37
2023-03-05T17:17:12.258Z,11.93
2023-03-05T17:19:40.813Z,11.67
2023-03-05T17:22:14.573Z,12.33
2023-03-05T17:24:46.802Z,12.10
2023-03-05T17:27:20.760Z,12.03
2023-03-05T17:29:50.768Z,13.33
2023-03-05T17:32:19.958Z,13.27
2023-03-05T17:34:48.450Z,12.83
2023-03-05T17:37:19.220Z,13.03
2023-03-05T17:39:47.147Z,12.60
2023-03-05T17:42:15.871Z,13.37
2023-03-05T17:44:45.411Z,13.77
2023-03-05T17:47:14.477Z,13.60
2023-03-05T17:49:41.844Z,14.60
2023-03-05T17:52:12.351Z,15.07
2023-03-05T17:54:39.659Z,14.17
2023-03-05T17:57:08.678Z,14.77
2023-03-05T17:59:38.006Z,14.87
2023-03-05T18:02:11.916Z,16.23
2023-03-05T18:04:42.092Z,16.13
2023-03-05T18:07:11.192Z,16.53
2023-03-05T18:09:39.735Z,17.07
2023-03-05T18:12:08.576Z,16.70
2023-03-05T18:14:37.141Z,17.13
2023-03-05T18:17:04.422Z,17.93
2023-03-05T18:19:32.819Z,18.00
2023-03-05T18:22:01.090Z,17.63
2023-03-05T18:24:30.235Z,17.13
2023-03-05T18:27:00.043Z,18.83
2023-03-05T18:29:29.087Z,18.30
2023-03-05T18:31:59.471Z,18.50
2023-03-05T18:34:32.777Z,19.07
2023-03-05T18:37:03.388Z,19.17
2023-03-05T18:39:33.400Z,18.00
2023-03-05T18:42:00.975Z,18.93
2023-03-05T18:44:29.193Z,18.77
2023-03-05T18:46:56.535Z,18.20
2023-03-05T18:49:23.907Z,17.33
2023-03-05T18:51:51.205Z,18.47
2023-03-05T18:54:18.594Z,18.00
2023-03-05T18:56:46.148Z,16.57
2023-03-05T18:59:13.450Z,17.87
2023-03-05T19:01:40.836Z,17.33
2023-03-05T19:04:10.188Z,17.13
2023-03-05T19:06:38.440Z,16.03
2023-03-05T19:09:14.496Z,16.30
2023-03-05T19:11:42.763Z,16.73
2023-03-05T19:14:10.037Z,15.23
2023-03-05T19:16:43.562Z,16.07
2023-03-05T19:19:16.803Z,15.50
2023-03-05T19:21:45.565Z,16.57
2023-03-05T19:24:20.465Z,16.43
2023-03-05T19:26:48.568Z,17.37
2023-03-05T19:29:16.120Z,17.97
2023-03-05T19:31:43.491Z,18.50
2023-03-05T19:34:13.294Z,18.17
2023-03-05T19:36:40.567Z,19.43
2023-03-05T19:39:08.966Z,19.93
2023-03-05T19:41:37.711Z,18.90
2023-03-05T19:44:05.315Z,19.80
2023-03-05T19:46:32.643Z,19.83
2023-03-05T19:49:00.168Z,20.07
2023-03-05T19:51:28.439Z,20.17
2023-03-05T19:53:57.312Z,20.63
2023-03-05T19:56:25.122Z,21.57
2023-03-05T19:58:52.581Z,20.90
2023-03-05T20:01:26.797Z,21.20
2023-03-05T20:03:55.179Z,20.63
2023-03-05T20:06:23.008Z,20.83
2023-03-05T20:08:50.886Z,20.50
2023-03-05T20:11:20.057Z,20.97
2023-03-05T20:13:47.789Z,20.93
2023-03-05T20:16:21.244Z,20.67
2023-03-05T20:18:52.743Z,20.17
2023-03-05T20:21:23.171Z,23.80
2023-03-05T20:23:51.179Z,20.33
2023-03-05T20:26:18.486Z,21.60
2023-03-05T20:28:45.813Z,21.90
2023-03-05T20:31:13.281Z,23.83
2023-03-05T20:33:41.092Z,21.30
2023-03-05T20:36:11.249Z,20.10
2023-03-05T20:38:38.798Z,21.63
2023-03-05T20:41:07.838Z,20.10
2023-03-05T20:43:36.738Z,19.50
2023-03-05T20:46:04.608Z,20.67
2023-03-05T20:48:35.907Z,17.33
2023-03-05T20:51:17.136Z,19.60
2023-03-05T20:53:44.482Z,19.67
2023-03-05T20:56:13.287Z,19.77
2023-03-05T20:58:40.748Z,18.27
2023-03-05T21:01:08.488Z,18.53
2023-03-05T21:03:37.322Z,17.63
2023-03-05T21:06:04.921Z,16.97
2023-03-05T21:08:32.639Z,17.17
2023-03-05T21:11:06.274Z,18.10
2023-03-05T21:13:33.648Z,17.17
2023-03-05T21:16:02.130Z,16.53
2023-03-05T21:18:29.871Z,16.93
2023-03-05T21:20:58.262Z,17.23
2023-03-05T21:23:26.016Z,17.67
2023-03-05T21:26:04.454Z,16.27
2023-03-05T21:28:34.371Z,16.20
2023-03-05T21:31:06.786Z,17.53
2023-03-05T21:33:35.079Z,17.03
2023-03-05T21:36:02.351Z,15.37
2023-03-05T21:38:29.926Z,17.70
2023-03-05T21:40:58.857Z,16.93
2023-03-05T21:43:33.953Z,17.53
2023-03-05T21:46:03.441Z,17.17
2023-03-05T21:48:31.202Z,16.53
2023-03-05T21:50:59.328Z,16.57
2023-03-05T21:53:26.961Z,16.77
2023-03-05T21:56:20.894Z,17.60
2023-03-05T21:58:49.318Z,17.40
2023-03-05T22:01:21.130Z,16.33
2023-03-05T22:03:50.083Z,16.13
2023-03-05T22:06:21.413Z,16.83
2023-03-05T22:08:51.630Z,16.33
2023-03-05T22:11:21.578Z,16.47
2023-03-05T22:13:52.335Z,17.10
2023-03-05T22:16:24.627Z,18.13
2023-03-05T22:18:55.541Z,17.63
2023-03-05T22:21:25.191Z,17.77
2023-03-05T22:23:57.433Z,17.33
2023-03-05T22:26:25.733Z,17.60
2023-03-05T22:28:53.077Z,17.67
2023-03-05T22:31:22.092Z,18.13
2023-03-05T22:33:49.998Z,18.33
2023-03-05T22:36:17.458Z,17.83
2023-03-05T22:38:50.449Z,19.80
2023-03-05T22:41:20.099Z,18.87
2023-03-05T22:43:48.004Z,19.50
2023-03-05T22:46:17.450Z,19.23
2023-03-05T22:48:45.296Z,19.83
2023-03-05T22:51:13.313Z,20.80
2023-03-05T22:53:42.130Z,20.07
2023-03-05T22:56:14.661Z,21.17
2023-03-05T22:58:46.428Z,19.50
2023-03-05T23:01:20.456Z,20.83
2023-03-05T23:03:53.186Z,20.90
2023-03-05T23:06:24.010Z,22.20
2023-03-05T23:08:58.842Z,22.53
2023-03-05T23:11:29.112Z,22.17
2023-03-05T23:13:59.310Z,21.43
2023-03-05T23:16:26.953Z,21.07
2023-03-05T23:18:54.524Z,21.80
2023-03-05T23:21:23.930Z,22.93
2023-03-05T23:23:53.062Z,22.73
2023-03-05T23:26:20.313Z,23.60
2023-03-05T23:28:47.661Z,23.13
2023-03-05T23:31:17.764Z,25.10
2023-03-05T23:33:45.248Z,23.33
2023-03-05T23:36:12.583Z,24.73
2023-03-05T23:38:41.978Z,20.70
2023-03-05T23:41:09.862Z,23.57
2023-03-05T23:43:37.258Z,23.60
2023-03-05T23:46:10.423Z,24.23
2023-03-05T23:48:37.856Z,23.50
2023-03-05T23:51:08.891Z,22.97
2023-03-05T23:53:38.183Z,23.37
2023-03-05T23:56:10.072Z,24.00
2023-03-05T23:58:37.805Z,23.80
